Nearby METAR Reports

 

K9MN - St Mary Hospital, Minnesota, USA
Distance from station: SW 3mi, 4km
Updated: 11/25/2020 3:35pm
Overcast
Overcast
 Wind from N
Wind: N 5 mph , 7 km/h
Temperature: 36°F , 2°C
Wind Chill: 32°F , 0°C
Dew Point: 34°F , 1°C
Humidity: 93%
Barometer: 29.86 inHg , 1011.2 hPa
Clouds: Overcast
Visibility: 10 miles , 16 km
Cloud details: Overcast 600 ft
2020/11/25 21:35 K9MN 252135Z AUTO 35004KT 10SM OVC006 02/01 A2986 RMK AO1 T00150011
KRST - Rochester, Minnesota, USA
Distance from station: SSW 10mi, 16km
Updated: 11/25/2020 2:54pm
Overcast
Overcast
 Wind from N
Wind: N 9 mph , 15 km/h
Temperature: 34°F , 1°C
Wind Chill: 27°F , -3°C
Dew Point: 32°F , 0°C
Humidity: 93%
Barometer: 29.84 inHg , 1010.5 hPa
Clouds: Overcast
Visibility: 10 miles , 16 km
Cloud details: Overcast 500 ft
2020/11/25 20:54 KRST 252054Z 36008KT 10SM OVC005 01/00 A2984 RMK AO2 SLP120 T00110000 56012
 
KTOB - Dodge Center, Minnesota, USA
Distance from station: W 19mi, 30km
Updated: 11/25/2020 3:35pm
Overcast
Overcast
 Wind from N
Wind: N 6 mph , 9 km/h
Temperature: 34°F , 1°C
Wind Chill: 29°F , -2°C
Dew Point: 32°F , 0°C
Humidity: 93%
Barometer: 29.86 inHg , 1011.2 hPa
Clouds: Overcast
Visibility: 10 miles , 16 km
Cloud details: Overcast 600 ft
2020/11/25 21:35 KTOB 252135Z AUTO 36005KT 10SM OVC006 01/00 A2986 RMK AO2
KFKA - Preston, Minnesota, USA
Distance from station: SSE 28mi, 45km
Updated: 11/25/2020 3:35pm
Mist, Overcast
Mist, Overcast
 Wind from N
Wind: N 8 mph , 13 km/h
Temperature: 34°F , 1°C
Wind Chill: 27°F , -3°C
Dew Point: 32°F , 0°C
Humidity: 93%
Barometer: 29.84 inHg , 1010.5 hPa
Summary: Mist
Clouds: Overcast
Visibility: 4 miles , 6 km
Cloud details: Overcast 400 ft
2020/11/25 21:35 KFKA 252135Z AUTO 01007KT 4SM BR OVC004 01/00 A2984 RMK AO2 T00050001
 
KAUM - Austin Muni, Minnesota, USA
Distance from station: SW 35mi, 57km
Updated: 11/25/2020 3:35pm

 Wind from N
Wind: N 8 mph , 13 km/h
Temperature: 36°F , 2°C
Wind Chill: 30°F , -1°C
Dew Point: 36°F , 2°C
Humidity: 100%
Barometer: 29.85 inHg , 1010.8 hPa
Visibility: 10 miles , 16 km
2020/11/25 21:35 KAUM 252135Z AUTO 36007KT 10SM 02/02 A2985 RMK AO2
KONA - Winona Muni, Minnesota, USA
Distance from station: E 37mi, 59km
Updated: 11/25/2020 3:35pm
Mist, Overcast
Mist, Overcast
 Wind from calm
Wind: Calm
Temperature: 36°F , 2°C
Dew Point: 36°F , 2°C
Humidity: 100%
Barometer: 29.87 inHg , 1011.5 hPa
Summary: Mist
Clouds: Overcast
Visibility: 4 miles , 6 km
Cloud details: Overcast 1100 ft
2020/11/25 21:35 KONA 252135Z AUTO 00000KT 4SM BR OVC011 02/02 A2987 RMK AO2
 
KRGK - Red Wing, Minnesota, USA
Distance from station: N 38mi, 61km
Updated: 11/25/2020 3:35pm
Overcast
Overcast
 Wind from N
Wind: N 5 mph , 7 km/h
Temperature: 36°F , 2°C
Wind Chill: 32°F , 0°C
Dew Point: 32°F , 0°C
Humidity: 87%
Barometer: 29.87 inHg , 1011.5 hPa
Clouds: Overcast
Visibility: 10 miles , 16 km
Cloud details: Overcast 1100 ft
2020/11/25 21:35 KRGK 252135Z AUTO 36004KT 10SM OVC011 02/00 A2987 RMK AO2
KOWA - Owatonna, Minnesota, USA
Distance from station: W 41mi, 65km
Updated: 11/25/2020 3:33pm
Overcast
Overcast
 Wind from N
Wind: N 6 mph , 9 km/h
Temperature: 36°F , 2°C
Wind Chill: 31°F , -1°C
Dew Point: 34°F , 1°C
Humidity: 93%
Barometer: 29.87 inHg , 1011.5 hPa
Clouds: Overcast
Visibility: 10 miles , 16 km
Cloud details: Overcast 800 ft
2020/11/25 21:33 KOWA 252133Z AUTO 35005KT 10SM OVC008 02/01 A2987 RMK AO2
 
KSYN - Stanton, Minnesota, USA
Distance from station: NW 42mi, 68km
Updated: 11/25/2020 3:35pm
Overcast
Overcast
 Wind from N
Wind: N 6 mph , 9 km/h
Temperature: 36°F , 2°C
Wind Chill: 31°F , -1°C
Dew Point: 32°F , 0°C
Humidity: 87%
Barometer: 29.87 inHg , 1011.5 hPa
Clouds: Overcast
Visibility: 10 miles , 16 km
Cloud details: Overcast 700 ft
2020/11/25 21:35 KSYN 252135Z AUTO 36005KT 10SM OVC007 02/00 A2987 RMK AO2 T00150000
KFBL - Faribault Muni, Minnesota, USA
Distance from station: WNW 48mi, 77km
Updated: 11/25/2020 3:35pm
Mist, Overcast
Mist, Overcast
 Wind from calm
Wind: Calm
Temperature: 36°F , 2°C
Dew Point: 34°F , 1°C
Humidity: 93%
Barometer: 29.87 inHg , 1011.5 hPa
Summary: Mist
Clouds: Overcast
Visibility: 2 1/2 miles , 4 km
Cloud details: Mostly cloudy 500 ft
Overcast 1100 ft
2020/11/25 21:35 KFBL 252135Z AUTO 00000KT 2 1/2SM BR BKN005 OVC011 02/01 A2987 RMK AO2